CDT,Max TemperatureF,Mean TemperatureF,Min TemperatureF,Max Dew PointF,MeanDew PointF,Min DewpointF,Max Humidity, Mean Humidity, Min Humidity, Max Sea Level PressureIn, Mean Sea Level PressureIn, Min Sea Level PressureIn, Max VisibilityMiles, Mean VisibilityMiles, Min VisibilityMiles, Max Wind SpeedMPH, Mean Wind SpeedMPH, Max Gust SpeedMPH,PrecipitationIn, CloudCover, Events, WindDirDegrees
2014-3-1,75,61,47,63,57,45,100,82,64,29.99,29.92,29.83,10,7,0,21,12,28,0.00,5,Fog,168
2014-3-2,68,45,21,64,30,15,93,84,74,30.35,30.12,29.91,10,6,1,26,18,37,0.02,8,Rain-Snow,332
2014-3-3,38,28,17,22,15,10,77,61,44,30.48,30.39,30.31,10,10,10,26,15,33,0.00,4,,1
2014-3-4,50,38,26,34,26,20,82,64,46,30.30,30.16,30.05,10,10,6,13,6,15,0.00,1,,61
2014-3-5,49,41,32,43,36,30,100,83,65,30.18,30.07,29.99,10,7,2,16,4,18,0.03,6,Rain,96
2014-3-6,59,47,35,41,37,32,89,66,43,30.25,30.16,30.07,10,9,5,20,7,25,0.00,4,,349
2014-3-7,68,50,31,48,40,31,92,65,37,30.06,29.96,29.86,10,8,2,24,13,29,0.00,0,,175
2014-3-8,56,48,40,52,42,33,93,75,56,30.31,30.10,29.87,10,7,4,24,12,30,T,7,Rain,354
2014-3-9,63,50,37,43,37,30,89,66,43,30.35,30.27,30.19,10,8,4,16,8,22,0.00,4,,343
2014-3-10,73,55,36,55,45,36,100,72,44,30.22,30.07,29.89,10,6,1,16,7,21,0.00,1,,182
2014-3-11,80,69,57,57,55,54,93,69,45,29.87,29.70,29.53,10,10,8,32,14,40,0.01,4,,178
2014-3-12,63,52,40,37,27,17,60,39,17,30.29,30.13,29.78,10,10,10,37,19,48,0.00,0,,350
2014-3-13,66,46,27,35,27,23,89,46,13,30.35,30.24,30.08,10,10,10,14,7,16,0.00,0,,198
2014-3-14,73,57,41,55,47,35,89,68,46,30.10,30.03,29.94,10,10,10,22,11,25,0.00,3,,165
2014-3-15,68,62,55,65,60,54,97,89,81,29.96,29.82,29.67,10,6,1,32,8,37,0.36,6,Rain-Thunderstorm,159
2014-3-16,57,50,43,55,44,32,100,80,59,30.09,29.90,29.72,10,9,6,30,18,38,T,7,Rain,339
2014-3-17,63,49,34,34,29,23,79,52,25,30.05,29.93,29.74,10,10,10,17,9,21,0.00,1,,294
2014-3-18,81,65,48,54,42,31,68,49,30,29.82,29.69,29.62,10,10,10,28,18,33,0.00,0,,175
2014-3-19,66,55,43,37,33,27,66,46,25,30.21,30.09,29.88,10,9,4,24,12,30,0.00,3,,354
2014-3-20,72,53,33,39,33,27,96,58,20,30.25,30.15,30.01,10,10,10,13,6,15,0.00,0,,176
2014-3-21,77,62,47,58,51,40,78,65,51,30.00,29.90,29.81,10,10,10,25,14,31,0.00,0,,170
2014-3-22,75,64,53,64,58,44,100,81,62,30.08,29.95,29.88,10,7,0,21,9,25,T,7,Fog-Rain,118
2014-3-23,53,49,45,46,40,34,93,70,46,30.32,30.23,30.09,10,10,7,28,12,32,0.16,8,Rain-Thunderstorm,349
2014-3-24,66,54,41,46,43,39,93,71,48,30.25,30.14,30.03,10,10,8,9,2,14,0.00,3,,8
2014-3-25,65,52,39,42,32,22,100,60,19,30.39,30.26,30.16,10,10,7,18,8,23,0.00,0,,38
2014-3-26,65,52,38,52,42,30,75,64,52,30.20,30.07,29.93,10,10,10,33,15,41,0.02,6,Rain,151
2014-3-27,81,70,59,66,60,53,100,79,58,29.91,29.79,29.69,10,8,2,23,15,32,0.02,6,Rain,174
2014-3-28,80,67,54,67,61,46,100,80,60,30.04,29.80,29.73,10,7,2,38,10,49,0.25,5,Rain-Thunderstorm,197
2014-3-29,74,61,47,45,41,37,82,55,27,30.29,30.19,30.06,10,10,10,15,8,24,0.00,0,,15
2014-3-30,77,58,39,47,42,36,89,59,29,30.22,30.12,29.98,10,10,10,23,13,29,0.00,0,,164
2014-3-31,82,69,56,59,54,47,86,66,45,30.00,29.91,29.83,10,10,10,26,17,36,0.00,4,,169